createdAt,value
2018-07-25T00:00:31.885Z,1.70
2018-07-25T00:03:00.099Z,1.62
2018-07-25T00:05:28.306Z,1.77
2018-07-25T00:07:56.552Z,2.02
2018-07-25T00:10:28.960Z,2.12
2018-07-25T00:12:57.209Z,1.70
2018-07-25T00:15:25.400Z,1.60
2018-07-25T00:17:53.603Z,1.60
2018-07-25T00:20:21.850Z,1.50
2018-07-25T00:22:50.098Z,1.85
2018-07-25T00:25:18.314Z,1.60
2018-07-25T00:27:46.564Z,1.50
2018-07-25T00:30:14.771Z,1.52
2018-07-25T00:32:42.955Z,1.62
2018-07-25T00:35:11.223Z,1.45
2018-07-25T00:37:39.464Z,1.52
2018-07-25T00:40:07.692Z,1.77
2018-07-25T00:42:35.998Z,1.37
2018-07-25T00:45:04.220Z,1.62
2018-07-25T00:47:32.440Z,1.95
2018-07-25T00:50:24.124Z,1.60
2018-07-25T00:52:52.304Z,1.70
2018-07-25T00:55:20.534Z,1.35
2018-07-25T00:57:48.763Z,1.65
2018-07-25T01:00:17.931Z,1.70
2018-07-25T01:02:46.773Z,1.70
2018-07-25T01:05:15.159Z,1.32
2018-07-25T01:07:43.351Z,2.17
2018-07-25T01:10:11.565Z,1.70
2018-07-25T01:12:39.785Z,1.80
2018-07-25T01:15:08.975Z,1.62
2018-07-25T01:17:37.305Z,1.70
2018-07-25T01:20:05.692Z,1.50
2018-07-25T01:22:33.923Z,1.80
2018-07-25T01:25:02.554Z,1.60
2018-07-25T01:27:30.771Z,1.57
2018-07-25T01:29:58.972Z,2.08
2018-07-25T01:32:27.198Z,2.00
2018-07-25T01:34:55.546Z,1.72
2018-07-25T01:37:23.753Z,1.85
2018-07-25T01:39:51.975Z,1.85
2018-07-25T01:42:20.220Z,1.85
2018-07-25T01:50:03.339Z,1.87
2018-07-25T01:52:32.670Z,2.08
2018-07-25T01:55:01.969Z,1.80
2018-07-25T01:57:30.206Z,1.95
2018-07-25T01:59:58.436Z,1.65
2018-07-25T02:02:26.667Z,1.57
2018-07-25T02:04:54.912Z,2.30
2018-07-25T02:07:24.276Z,1.60
2018-07-25T02:09:52.528Z,1.77
2018-07-25T02:12:21.287Z,2.67
2018-07-25T02:14:49.550Z,1.70
2018-07-25T02:17:17.955Z,1.50
2018-07-25T02:19:46.180Z,2.08
2018-07-25T02:22:14.494Z,1.90
2018-07-25T02:24:43.238Z,1.87
2018-07-25T02:27:11.492Z,1.67
2018-07-25T02:29:39.754Z,1.87
2018-07-25T02:32:07.983Z,1.80
2018-07-25T02:34:36.525Z,1.67
2018-07-25T02:37:04.915Z,1.90
2018-07-25T02:39:33.157Z,1.70
2018-07-25T02:42:01.435Z,1.85
2018-07-25T02:44:29.728Z,1.85
2018-07-25T02:46:57.941Z,1.98
2018-07-25T02:49:26.200Z,1.95
2018-07-25T02:51:54.409Z,1.57
2018-07-25T02:54:22.649Z,1.95
2018-07-25T02:56:50.919Z,2.12
2018-07-25T02:59:31.244Z,2.22
2018-07-25T03:01:59.469Z,1.82
2018-07-25T03:04:27.715Z,1.85
2018-07-25T03:06:55.967Z,1.98
2018-07-25T03:09:24.171Z,2.05
2018-07-25T03:11:52.391Z,2.02
2018-07-25T03:14:20.615Z,1.90
2018-07-25T03:16:48.848Z,1.92
2018-07-25T03:19:17.250Z,2.30
2018-07-25T03:21:45.555Z,2.05
2018-07-25T03:24:13.741Z,2.17
2018-07-25T03:26:41.949Z,2.00
2018-07-25T03:29:10.211Z,2.12
2018-07-25T03:31:38.538Z,2.00
2018-07-25T03:34:06.660Z,1.90
2018-07-25T03:36:34.911Z,1.90
2018-07-25T03:39:03.116Z,2.02
2018-07-25T03:41:31.304Z,1.70
2018-07-25T03:43:59.558Z,1.77
2018-07-25T03:46:27.763Z,1.87
2018-07-25T03:48:55.962Z,3.15
2018-07-25T03:51:24.221Z,1.90
2018-07-25T03:53:52.417Z,2.15
2018-07-25T03:56:21.854Z,2.08
2018-07-25T03:58:52.727Z,2.08
2018-07-25T04:01:20.987Z,2.05
2018-07-25T04:03:49.218Z,1.90
2018-07-25T04:06:17.537Z,1.90
2018-07-25T04:08:45.809Z,2.25
2018-07-25T04:11:14.045Z,2.02
2018-07-25T04:13:42.276Z,1.85
2018-07-25T04:16:10.585Z,2.22
2018-07-25T04:18:38.792Z,2.30
2018-07-25T04:21:07.014Z,2.05
2018-07-25T04:23:35.315Z,2.35
2018-07-25T04:26:03.574Z,2.37
2018-07-25T04:28:31.774Z,3.10
2018-07-25T04:30:59.993Z,2.00
2018-07-25T04:33:28.892Z,2.00
2018-07-25T04:35:57.141Z,2.27
2018-07-25T04:38:25.621Z,3.33
2018-07-25T04:40:54.551Z,2.52
2018-07-25T04:43:23.268Z,2.83
2018-07-25T04:45:52.660Z,2.00
2018-07-25T04:48:20.891Z,2.75
2018-07-25T04:50:49.098Z,2.98
2018-07-25T04:53:17.390Z,2.37
2018-07-25T04:55:45.613Z,2.70
2018-07-25T04:58:13.871Z,2.62
2018-07-25T05:00:42.141Z,2.40
2018-07-25T05:03:10.359Z,2.52
2018-07-25T05:05:39.514Z,2.60
2018-07-25T05:08:07.785Z,3.27
2018-07-25T05:10:36.039Z,2.45
2018-07-25T05:13:04.271Z,2.27
2018-07-25T05:15:33.193Z,2.17
2018-07-25T05:18:01.540Z,2.58
2018-07-25T05:20:29.764Z,2.27
2018-07-25T05:22:58.184Z,2.30
2018-07-25T05:25:26.400Z,2.40
2018-07-25T05:27:54.619Z,2.35
2018-07-25T05:30:23.645Z,2.72
2018-07-25T05:32:52.820Z,2.55
2018-07-25T05:35:21.063Z,2.70
2018-07-25T05:38:11.198Z,2.40
2018-07-25T05:40:43.721Z,3.22
2018-07-25T05:43:13.404Z,2.65
2018-07-25T05:45:42.236Z,2.55
2018-07-25T05:48:10.511Z,2.60
2018-07-25T05:50:38.881Z,2.70
2018-07-25T05:53:07.192Z,2.52
2018-07-25T05:55:36.265Z,2.87
2018-07-25T05:58:04.585Z,2.70
2018-07-25T06:00:32.804Z,2.47
2018-07-25T06:03:01.210Z,2.67
2018-07-25T06:05:29.446Z,3.08
2018-07-25T06:07:57.796Z,3.60
2018-07-25T06:10:26.958Z,2.47
2018-07-25T06:12:56.058Z,2.72
2018-07-25T06:15:27.644Z,2.77
2018-07-25T06:18:03.799Z,2.62
2018-07-25T06:21:11.861Z,2.87
2018-07-25T06:23:44.105Z,2.70
2018-07-25T06:26:21.522Z,2.70
2018-07-25T06:28:51.260Z,2.40
2018-07-25T06:31:24.994Z,2.92
2018-07-25T06:33:56.268Z,2.77
2018-07-25T06:36:24.496Z,2.50
2018-07-25T06:38:54.531Z,2.70
2018-07-25T06:41:22.883Z,2.45
2018-07-25T06:43:51.158Z,2.65
2018-07-25T06:46:34.505Z,2.95
2018-07-25T06:49:04.410Z,2.27
2018-07-25T06:51:40.343Z,2.83
2018-07-25T06:54:08.554Z,2.17
2018-07-25T06:56:36.761Z,2.17
2018-07-25T06:59:04.997Z,2.50
2018-07-25T07:01:33.315Z,2.75
2018-07-25T07:04:01.547Z,2.40
2018-07-25T07:06:29.868Z,2.10
2018-07-25T07:08:58.119Z,2.83
2018-07-25T07:11:26.344Z,2.42
2018-07-25T07:13:54.634Z,2.42
2018-07-25T07:16:23.830Z,2.70
2018-07-25T07:18:52.046Z,2.60
2018-07-25T07:21:21.567Z,3.08
2018-07-25T07:23:50.065Z,2.65
2018-07-25T07:26:18.302Z,2.55
2018-07-25T07:28:46.627Z,2.83
2018-07-25T07:31:14.923Z,2.30
2018-07-25T07:33:43.231Z,2.70
2018-07-25T07:36:12.749Z,3.02
2018-07-25T07:38:40.927Z,2.55
2018-07-25T07:41:15.100Z,2.60
2018-07-25T07:43:45.090Z,2.45
2018-07-25T07:46:14.913Z,1.90
2018-07-25T07:48:45.047Z,2.40
2018-07-25T07:51:13.788Z,2.02
2018-07-25T07:53:42.023Z,1.90
2018-07-25T07:56:10.232Z,2.30
2018-07-25T07:58:38.764Z,1.98
2018-07-25T08:01:12.332Z,2.10
2018-07-25T08:03:40.835Z,2.20
2018-07-25T08:06:10.788Z,1.92
2018-07-25T08:08:39.100Z,1.87
2018-07-25T08:11:07.503Z,2.30
2018-07-25T08:13:36.963Z,1.37
2018-07-25T08:16:05.198Z,3.35
2018-07-25T08:18:33.462Z,1.92
2018-07-25T08:21:01.747Z,1.87
2018-07-25T08:23:29.943Z,1.47
2018-07-25T08:25:58.213Z,1.67
2018-07-25T08:28:26.439Z,1.47
2018-07-25T08:30:54.635Z,1.62
2018-07-25T08:33:22.878Z,1.50
2018-07-25T08:35:51.108Z,1.70
2018-07-25T08:38:29.475Z,1.75
2018-07-25T08:40:57.660Z,1.77
2018-07-25T08:43:25.894Z,1.60
2018-07-25T08:45:54.155Z,1.30
2018-07-25T08:48:22.378Z,2.35
2018-07-25T08:50:50.747Z,1.70
2018-07-25T08:53:19.085Z,2.05
2018-07-25T08:55:47.354Z,1.67
2018-07-25T08:58:15.623Z,1.70
2018-07-25T09:00:44.662Z,1.60
2018-07-25T09:03:12.948Z,1.40
2018-07-25T09:05:41.651Z,1.35
2018-07-25T09:08:10.069Z,1.80
2018-07-25T09:10:38.371Z,1.57
2018-07-25T09:13:06.861Z,1.77
2018-07-25T09:15:35.202Z,1.70
2018-07-25T09:18:03.848Z,1.65
2018-07-25T09:20:32.145Z,1.30
2018-07-25T09:23:00.406Z,1.55
2018-07-25T09:25:28.695Z,1.57
2018-07-25T09:27:57.192Z,1.72
2018-07-25T09:30:25.612Z,2.10
2018-07-25T09:32:54.169Z,1.87
2018-07-25T09:35:22.497Z,2.20
2018-07-25T09:37:50.749Z,1.80
2018-07-25T09:40:18.980Z,2.02
2018-07-25T09:42:47.228Z,1.77
2018-07-25T09:45:15.765Z,1.87
2018-07-25T09:47:43.983Z,2.00
2018-07-25T09:50:17.944Z,1.90
2018-07-25T09:52:46.261Z,2.15
2018-07-25T09:55:15.359Z,1.92
2018-07-25T09:57:43.730Z,2.10
2018-07-25T10:00:13.278Z,2.00
2018-07-25T10:02:41.732Z,2.00
2018-07-25T10:05:10.617Z,2.00
2018-07-25T10:07:38.957Z,1.90
2018-07-25T10:10:07.360Z,1.70
2018-07-25T10:12:35.600Z,2.20
2018-07-25T10:15:03.959Z,1.82
2018-07-25T10:17:32.409Z,2.12
2018-07-25T10:20:00.694Z,1.40
2018-07-25T10:22:28.967Z,1.70
2018-07-25T10:24:57.401Z,1.57
2018-07-25T10:27:25.722Z,1.80
2018-07-25T10:29:53.855Z,1.92
2018-07-25T10:32:22.140Z,1.95
2018-07-25T10:34:50.351Z,1.67
2018-07-25T10:37:18.620Z,1.60
2018-07-25T10:39:46.864Z,1.95
2018-07-25T10:42:15.105Z,2.27
2018-07-25T10:44:44.702Z,2.27
2018-07-25T10:47:13.045Z,1.90
2018-07-25T10:49:41.337Z,1.90
2018-07-25T10:52:09.535Z,1.92
2018-07-25T10:54:37.759Z,1.70
2018-07-25T10:57:06.012Z,1.75
2018-07-25T10:59:34.244Z,2.17
2018-07-25T11:02:02.552Z,2.00
2018-07-25T11:04:31.636Z,1.85
2018-07-25T11:06:59.848Z,1.90
2018-07-25T11:09:28.072Z,1.75
2018-07-25T11:11:56.377Z,2.83
2018-07-25T11:14:24.631Z,2.02
2018-07-25T11:16:53.885Z,1.85
2018-07-25T11:19:22.303Z,1.82
2018-07-25T11:21:51.523Z,1.95
2018-07-25T11:24:19.751Z,1.95
2018-07-25T11:26:49.228Z,1.52
2018-07-25T11:29:18.568Z,1.95
2018-07-25T11:31:46.815Z,2.05
2018-07-25T11:34:17.759Z,1.95
2018-07-25T11:36:45.979Z,1.42
2018-07-25T11:39:14.242Z,1.72
2018-07-25T11:41:42.604Z,2.10
2018-07-25T11:44:10.847Z,1.90
2018-07-25T11:46:39.047Z,1.90
2018-07-25T11:49:07.400Z,2.00
2018-07-25T11:51:35.734Z,1.70
2018-07-25T11:54:03.995Z,1.95
2018-07-25T11:56:32.358Z,1.90
2018-07-25T11:59:00.593Z,2.00
2018-07-25T12:01:28.851Z,2.05
2018-07-25T12:04:11.703Z,2.00
2018-07-25T12:06:49.168Z,1.70
2018-07-25T12:09:23.982Z,1.87
2018-07-25T12:11:52.291Z,1.82
2018-07-25T12:14:20.519Z,1.80
2018-07-25T12:16:52.537Z,1.60
2018-07-25T12:19:21.415Z,1.70
2018-07-25T12:21:49.770Z,1.90
2018-07-25T12:24:18.080Z,1.70
2018-07-25T12:26:46.311Z,1.60
2018-07-25T12:29:15.122Z,2.10
2018-07-25T12:31:43.865Z,1.60
2018-07-25T12:34:12.076Z,1.70
2018-07-25T12:36:40.349Z,1.55
2018-07-25T12:49:25.823Z,1.80
2018-07-25T12:51:54.164Z,1.50
2018-07-25T12:54:22.401Z,1.52
2018-07-25T12:56:50.679Z,1.30
2018-07-25T12:59:18.900Z,1.47
2018-07-25T13:01:47.186Z,1.10
2018-07-25T13:04:15.437Z,1.75
2018-07-25T13:06:43.696Z,1.30
2018-07-25T13:09:12.540Z,1.32
2018-07-25T13:11:40.987Z,1.52
2018-07-25T13:14:09.341Z,1.50
2018-07-25T13:16:38.008Z,1.50
2018-07-25T13:19:06.325Z,1.42
2018-07-25T13:21:34.916Z,1.20
2018-07-25T13:24:03.139Z,1.30
2018-07-25T13:26:31.439Z,1.07
2018-07-25T13:29:00.546Z,1.35
2018-07-25T13:31:28.793Z,1.27
2018-07-25T13:33:57.103Z,1.20
2018-07-25T13:36:25.461Z,1.20
2018-07-25T13:38:53.767Z,1.40
2018-07-25T13:41:22.032Z,1.20
2018-07-25T13:43:50.278Z,1.45
2018-07-25T13:46:18.739Z,1.25
2018-07-25T13:48:46.820Z,1.30
2018-07-25T13:51:15.069Z,1.27
2018-07-25T13:53:43.299Z,2.22
2018-07-25T13:56:11.592Z,1.25
2018-07-25T13:58:39.833Z,1.85
2018-07-25T14:01:08.061Z,1.42
2018-07-25T14:03:36.336Z,1.32
2018-07-25T14:06:04.610Z,1.32
2018-07-25T14:08:32.868Z,1.27
2018-07-25T14:11:01.165Z,1.30
2018-07-25T14:13:29.534Z,1.25
2018-07-25T14:15:57.801Z,1.32
2018-07-25T14:18:26.084Z,1.25
2018-07-25T14:20:54.335Z,1.10
2018-07-25T14:23:22.574Z,1.10
2018-07-25T14:25:50.935Z,1.40
2018-07-25T14:28:19.160Z,1.60
2018-07-25T14:30:47.530Z,1.65
2018-07-25T14:33:15.964Z,1.37
2018-07-25T14:35:44.174Z,1.30
2018-07-25T14:38:12.409Z,1.17
2018-07-25T14:40:40.954Z,1.35
2018-07-25T14:43:09.196Z,1.72
2018-07-25T14:45:37.465Z,1.30
2018-07-25T14:48:05.835Z,1.30
2018-07-25T14:50:34.042Z,1.27
2018-07-25T14:53:02.276Z,1.10
2018-07-25T14:55:30.517Z,1.00
2018-07-25T14:57:58.763Z,1.20
2018-07-25T15:00:27.159Z,1.10
2018-07-25T15:02:55.521Z,1.22
2018-07-25T15:05:23.789Z,0.90
2018-07-25T15:07:52.051Z,1.02
2018-07-25T15:10:20.319Z,1.02
2018-07-25T15:12:53.973Z,1.30
2018-07-25T15:15:22.172Z,0.90
2018-07-25T15:17:50.434Z,1.40
2018-07-25T15:20:18.652Z,1.22
2018-07-25T15:22:46.935Z,1.00
2018-07-25T15:25:15.105Z,1.12
2018-07-25T15:27:43.393Z,1.20
2018-07-25T15:30:12.321Z,1.22
2018-07-25T15:32:40.997Z,1.12
2018-07-25T15:35:09.921Z,1.00
2018-07-25T15:37:38.743Z,1.00
2018-07-25T15:40:07.664Z,1.17
2018-07-25T15:42:35.918Z,1.10
2018-07-25T15:45:04.464Z,1.07
2018-07-25T15:47:32.752Z,0.90
2018-07-25T15:50:01.003Z,1.70
2018-07-25T15:52:29.255Z,1.07
2018-07-25T15:54:57.522Z,1.17
2018-07-25T15:57:25.772Z,0.95
2018-07-25T15:59:54.016Z,1.25
2018-07-25T16:02:22.240Z,1.70
2018-07-25T16:04:50.468Z,2.05
2018-07-25T16:07:18.701Z,1.70
2018-07-25T16:09:47.014Z,1.72
2018-07-25T16:12:15.278Z,1.45
2018-07-25T16:14:43.575Z,1.47
2018-07-25T16:17:11.890Z,1.80
2018-07-25T16:19:40.077Z,1.70
2018-07-25T16:22:08.331Z,1.67
2018-07-25T16:24:36.567Z,1.70
2018-07-25T16:27:04.860Z,1.70
2018-07-25T16:29:33.102Z,1.70
2018-07-25T16:32:01.357Z,1.60
2018-07-25T16:34:29.685Z,1.80
2018-07-25T16:36:57.969Z,1.70
2018-07-25T16:39:26.304Z,1.90
2018-07-25T16:41:54.614Z,1.55
2018-07-25T16:44:22.835Z,1.90
2018-07-25T16:46:51.077Z,2.10
2018-07-25T16:49:19.480Z,1.82
2018-07-25T16:51:47.728Z,1.57
2018-07-25T16:54:15.976Z,1.50
2018-07-25T16:56:44.364Z,1.70
2018-07-25T16:59:12.573Z,1.60
2018-07-25T17:01:40.808Z,1.70
2018-07-25T17:04:09.059Z,1.75
2018-07-25T17:06:37.293Z,1.77
2018-07-25T17:09:08.078Z,1.80
2018-07-25T17:11:37.462Z,1.50
2018-07-25T17:14:05.843Z,2.17
2018-07-25T17:16:34.079Z,1.70
2018-07-25T17:19:02.339Z,1.67
2018-07-25T17:21:30.563Z,1.75
2018-07-25T17:23:58.825Z,2.05
2018-07-25T17:26:27.110Z,1.50
2018-07-25T17:28:55.326Z,1.45
2018-07-25T17:31:23.560Z,1.70
2018-07-25T17:33:51.867Z,1.40
2018-07-25T17:36:20.105Z,1.60
2018-07-25T17:38:48.325Z,1.60
2018-07-25T17:41:16.614Z,1.30
2018-07-25T17:43:44.900Z,1.60
2018-07-25T17:46:13.136Z,1.30
2018-07-25T17:48:42.124Z,1.50
2018-07-25T17:51:10.332Z,2.00
2018-07-25T17:53:38.658Z,1.50
2018-07-25T17:56:06.948Z,1.57
2018-07-25T17:58:35.169Z,1.17
2018-07-25T18:01:03.513Z,1.50
2018-07-25T18:03:31.858Z,1.70
2018-07-25T18:06:00.045Z,1.40
2018-07-25T18:08:28.273Z,1.27
2018-07-25T18:10:57.223Z,1.47
2018-07-25T18:13:30.791Z,1.20
2018-07-25T18:15:59.284Z,1.50
2018-07-25T18:18:27.586Z,1.55
2018-07-25T18:20:55.773Z,1.47
2018-07-25T18:23:24.028Z,1.20
2018-07-25T18:25:52.292Z,1.40
2018-07-25T18:28:20.513Z,1.40
2018-07-25T18:30:48.790Z,1.65
2018-07-25T18:33:17.023Z,1.20
2018-07-25T18:35:45.277Z,1.22
2018-07-25T18:38:13.553Z,1.22
2018-07-25T18:40:41.786Z,1.30
2018-07-25T18:43:10.006Z,1.37
2018-07-25T18:45:38.387Z,1.52
2018-07-25T18:48:06.671Z,1.25
2018-07-25T18:50:35.231Z,1.10
2018-07-25T18:53:03.771Z,1.20
2018-07-25T18:55:32.010Z,1.40
2018-07-25T18:58:01.062Z,1.37
2018-07-25T19:00:29.342Z,1.00
2018-07-25T19:02:57.565Z,1.02
2018-07-25T19:05:31.420Z,1.22
2018-07-25T19:08:01.099Z,1.55
2018-07-25T19:10:29.847Z,1.10
2018-07-25T19:12:58.186Z,1.40
2018-07-25T19:15:29.037Z,1.10
2018-07-25T19:17:57.268Z,1.30
2018-07-25T19:20:26.015Z,1.40
2018-07-25T19:22:54.229Z,1.27
2018-07-25T19:25:22.772Z,1.20
2018-07-25T19:27:51.499Z,1.30
2018-07-25T19:30:19.794Z,1.50
2018-07-25T19:32:48.230Z,1.42
2018-07-25T19:35:16.459Z,1.35
2018-07-25T19:37:44.661Z,1.20
2018-07-25T19:40:12.849Z,1.50
2018-07-25T19:42:41.114Z,1.35
2018-07-25T19:45:09.337Z,1.70
2018-07-25T19:47:37.539Z,1.32
2018-07-25T19:50:07.782Z,1.45
2018-07-25T19:52:36.050Z,1.45
2018-07-25T19:55:04.383Z,1.82
2018-07-25T19:57:32.722Z,1.42
2018-07-25T20:00:01.603Z,1.20
2018-07-25T20:02:31.620Z,1.22
2018-07-25T20:04:59.934Z,1.40
2018-07-25T20:07:28.287Z,1.15
2018-07-25T20:09:56.617Z,1.45
2018-07-25T20:12:25.013Z,1.40
2018-07-25T20:14:58.661Z,1.10
2018-07-25T20:17:28.574Z,1.27
2018-07-25T20:19:57.617Z,1.40
2018-07-25T20:22:25.851Z,1.50
2018-07-25T20:24:54.924Z,1.40
2018-07-25T20:27:23.134Z,1.17
2018-07-25T20:29:51.442Z,1.90
2018-07-25T20:32:19.817Z,1.35
2018-07-25T20:34:49.321Z,1.50
2018-07-25T20:37:18.034Z,1.55
2018-07-25T20:39:47.472Z,1.60
2018-07-25T20:42:15.732Z,1.72
2018-07-25T20:44:43.944Z,1.32
2018-07-25T20:47:15.959Z,1.40
2018-07-25T20:49:45.394Z,1.40
2018-07-25T20:52:14.308Z,1.37
2018-07-25T20:54:42.531Z,1.30
2018-07-25T20:57:10.882Z,1.50
2018-07-25T20:59:39.099Z,1.55
2018-07-25T21:02:07.889Z,1.40
2018-07-25T21:04:36.133Z,1.30
2018-07-25T21:07:04.376Z,1.62
2018-07-25T21:09:32.653Z,1.82
2018-07-25T21:12:00.893Z,1.47
2018-07-25T21:14:29.117Z,1.65
2018-07-25T21:16:57.420Z,1.85
2018-07-25T21:19:25.689Z,1.65
2018-07-25T21:21:54.023Z,1.55
2018-07-25T21:24:22.253Z,1.52
2018-07-25T21:26:50.609Z,1.50
2018-07-25T21:29:18.876Z,1.47
2018-07-25T21:31:47.267Z,1.67
2018-07-25T21:34:15.634Z,1.72
2018-07-25T21:36:43.887Z,1.90
2018-07-25T21:39:13.266Z,1.42
2018-07-25T21:41:41.839Z,1.90
2018-07-25T21:44:10.033Z,1.85
2018-07-25T21:46:38.265Z,1.80
2018-07-25T21:49:06.915Z,1.85
2018-07-25T21:51:35.188Z,1.70
2018-07-25T21:54:03.573Z,1.80
2018-07-25T21:56:31.864Z,1.60
2018-07-25T21:59:00.080Z,1.62
2018-07-25T22:01:28.487Z,1.60
2018-07-25T22:03:56.712Z,1.75
2018-07-25T22:06:24.956Z,2.15
2018-07-25T22:08:53.229Z,1.85
2018-07-25T22:11:21.392Z,1.60
2018-07-25T22:13:56.599Z,1.45
2018-07-25T22:16:26.014Z,1.55
2018-07-25T22:18:54.280Z,1.50
2018-07-25T22:21:22.566Z,1.90
2018-07-25T22:23:51.025Z,1.75
2018-07-25T22:26:19.525Z,1.82
2018-07-25T22:28:47.820Z,2.40
2018-07-25T22:31:16.071Z,1.80
2018-07-25T22:33:44.358Z,1.90
2018-07-25T22:36:12.586Z,1.77
2018-07-25T22:38:40.784Z,1.77
2018-07-25T22:41:09.021Z,1.82
2018-07-25T22:43:37.295Z,1.55
2018-07-25T22:46:05.564Z,1.80
2018-07-25T22:48:33.800Z,1.62
2018-07-25T22:51:03.363Z,1.75
2018-07-25T22:53:31.596Z,1.77
2018-07-25T22:55:59.821Z,1.70
2018-07-25T22:58:28.052Z,1.62
2018-07-25T23:00:56.528Z,1.60
2018-07-25T23:03:24.733Z,1.90
2018-07-25T23:05:53.005Z,1.85
2018-07-25T23:08:21.201Z,2.05
2018-07-25T23:10:49.493Z,1.85
2018-07-25T23:13:17.748Z,1.55
2018-07-25T23:15:45.979Z,1.82
2018-07-25T23:18:14.208Z,2.22
2018-07-25T23:20:42.463Z,2.00
2018-07-25T23:23:10.653Z,1.50
2018-07-25T23:25:38.850Z,1.95
2018-07-25T23:28:07.158Z,2.05
2018-07-25T23:30:35.482Z,2.00
2018-07-25T23:33:03.685Z,1.70
2018-07-25T23:35:31.968Z,1.87
2018-07-25T23:38:00.182Z,1.67
2018-07-25T23:40:28.392Z,2.15
2018-07-25T23:42:56.650Z,1.92
2018-07-25T23:45:26.368Z,1.80
2018-07-25T23:47:55.035Z,1.95
2018-07-25T23:50:23.345Z,2.12
2018-07-25T23:52:51.542Z,1.70
2018-07-25T23:55:19.752Z,1.82
2018-07-25T23:57:48.002Z,1.90
